sensor_id;sensor_type;location;lat;lon;timestamp;pressure;altitude;pressure_sealevel;temperature;humidity
68179;BME280;54998;42.656;23.382;2023-02-28T00:00:17;95327.00;;;4.18;93.45
68179;BME280;54998;42.656;23.382;2023-02-28T00:02:44;95329.75;;;4.15;93.46
68179;BME280;54998;42.656;23.382;2023-02-28T00:05:11;95335.19;;;4.08;93.28
68179;BME280;54998;42.656;23.382;2023-02-28T00:07:37;95329.00;;;3.98;93.72
68179;BME280;54998;42.656;23.382;2023-02-28T00:10:05;95323.19;;;3.96;94.49
68179;BME280;54998;42.656;23.382;2023-02-28T00:12:35;95335.25;;;3.93;94.90
68179;BME280;54998;42.656;23.382;2023-02-28T00:15:02;95332.25;;;4.00;95.25
68179;BME280;54998;42.656;23.382;2023-02-28T00:17:28;95329.09;;;4.11;95.02
68179;BME280;54998;42.656;23.382;2023-02-28T00:19:53;95335.00;;;3.97;95.30
68179;BME280;54998;42.656;23.382;2023-02-28T00:22:20;95338.38;;;4.12;96.02
68179;BME280;54998;42.656;23.382;2023-02-28T00:24:46;95339.28;;;4.25;95.86
68179;BME280;54998;42.656;23.382;2023-02-28T00:27:12;95346.28;;;4.36;95.90
68179;BME280;54998;42.656;23.382;2023-02-28T00:29:38;95345.91;;;4.42;95.50
68179;BME280;54998;42.656;23.382;2023-02-28T00:32:04;95342.91;;;4.36;94.80
68179;BME280;54998;42.656;23.382;2023-02-28T00:34:30;95347.63;;;4.42;94.49
68179;BME280;54998;42.656;23.382;2023-02-28T00:36:56;95347.28;;;4.48;94.37
68179;BME280;54998;42.656;23.382;2023-02-28T00:39:21;95357.97;;;4.53;94.20
68179;BME280;54998;42.656;23.382;2023-02-28T00:41:47;95346.19;;;4.52;94.43
68179;BME280;54998;42.656;23.382;2023-02-28T00:44:12;95333.84;;;4.46;94.34
68179;BME280;54998;42.656;23.382;2023-02-28T00:46:38;95335.09;;;4.53;94.01
68179;BME280;54998;42.656;23.382;2023-02-28T00:49:03;95327.09;;;4.59;94.09
68179;BME280;54998;42.656;23.382;2023-02-28T00:51:28;95324.59;;;4.45;94.28
68179;BME280;54998;42.656;23.382;2023-02-28T00:53:54;95317.41;;;4.51;94.32
68179;BME280;54998;42.656;23.382;2023-02-28T00:56:19;95319.84;;;4.53;94.12
68179;BME280;54998;42.656;23.382;2023-02-28T00:58:45;95318.78;;;4.43;94.12
68179;BME280;54998;42.656;23.382;2023-02-28T01:01:10;95330.66;;;4.42;93.60
68179;BME280;54998;42.656;23.382;2023-02-28T01:03:36;95339.28;;;4.40;93.46
68179;BME280;54998;42.656;23.382;2023-02-28T01:06:01;95337.19;;;4.32;93.86
68179;BME280;54998;42.656;23.382;2023-02-28T01:08:27;95340.56;;;4.32;93.84
68179;BME280;54998;42.656;23.382;2023-02-28T01:10:52;95340.00;;;4.27;93.76
68179;BME280;54998;42.656;23.382;2023-02-28T01:13:19;95336.56;;;4.28;93.91
68179;BME280;54998;42.656;23.382;2023-02-28T01:15:53;95333.47;;;4.38;94.13
68179;BME280;54998;42.656;23.382;2023-02-28T01:18:20;95337.09;;;4.33;94.44
68179;BME280;54998;42.656;23.382;2023-02-28T01:20:46;95327.19;;;4.29;93.98
68179;BME280;54998;42.656;23.382;2023-02-28T01:23:12;95322.94;;;4.15;94.33
68179;BME280;54998;42.656;23.382;2023-02-28T01:25:37;95333.19;;;4.28;94.30
68179;BME280;54998;42.656;23.382;2023-02-28T01:28:03;95320.59;;;4.12;93.98
68179;BME280;54998;42.656;23.382;2023-02-28T01:30:29;95319.38;;;4.03;94.09
68179;BME280;54998;42.656;23.382;2023-02-28T01:32:54;95317.31;;;4.10;93.86
68179;BME280;54998;42.656;23.382;2023-02-28T01:35:20;95319.41;;;4.18;93.90
68179;BME280;54998;42.656;23.382;2023-02-28T01:37:45;95315.84;;;4.20;93.56
68179;BME280;54998;42.656;23.382;2023-02-28T01:40:12;95326.38;;;4.28;93.40
68179;BME280;54998;42.656;23.382;2023-02-28T01:42:38;95329.22;;;4.24;93.36
68179;BME280;54998;42.656;23.382;2023-02-28T01:45:20;95331.00;;;4.22;93.05
68179;BME280;54998;42.656;23.382;2023-02-28T01:47:48;95335.28;;;4.21;93.18
68179;BME280;54998;42.656;23.382;2023-02-28T01:50:18;95329.84;;;4.27;93.40
68179;BME280;54998;42.656;23.382;2023-02-28T01:52:45;95330.63;;;4.14;92.92
68179;BME280;54998;42.656;23.382;2023-02-28T01:55:12;95335.56;;;4.17;93.38
68179;BME280;54998;42.656;23.382;2023-02-28T01:57:42;95338.56;;;4.23;92.94
68179;BME280;54998;42.656;23.382;2023-02-28T02:00:14;95327.75;;;4.20;92.91
68179;BME280;54998;42.656;23.382;2023-02-28T02:02:46;95326.22;;;4.17;92.87
68179;BME280;54998;42.656;23.382;2023-02-28T02:05:16;95327.56;;;4.08;93.03
68179;BME280;54998;42.656;23.382;2023-02-28T02:07:44;95321.66;;;4.08;92.82
68179;BME280;54998;42.656;23.382;2023-02-28T02:10:17;95332.72;;;4.07;93.04
68179;BME280;54998;42.656;23.382;2023-02-28T02:18:34;95329.63;;;4.16;93.08
68179;BME280;54998;42.656;23.382;2023-02-28T02:21:21;95323.03;;;4.14;93.80
68179;BME280;54998;42.656;23.382;2023-02-28T02:42:20;95335.09;;;4.10;94.80
68179;BME280;54998;42.656;23.382;2023-02-28T02:44:55;95336.28;;;4.19;95.10
68179;BME280;54998;42.656;23.382;2023-02-28T02:47:24;95340.91;;;4.26;95.32
68179;BME280;54998;42.656;23.382;2023-02-28T02:49:55;95344.19;;;4.28;95.09
68179;BME280;54998;42.656;23.382;2023-02-28T02:52:25;95336.81;;;4.24;95.15
68179;BME280;54998;42.656;23.382;2023-02-28T02:54:56;95333.28;;;4.26;95.56
68179;BME280;54998;42.656;23.382;2023-02-28T03:00:05;95350.34;;;4.39;95.73
68179;BME280;54998;42.656;23.382;2023-02-28T03:02:35;95347.97;;;4.36;95.08
68179;BME280;54998;42.656;23.382;2023-02-28T03:05:12;95359.50;;;4.13;94.80
68179;BME280;54998;42.656;23.382;2023-02-28T03:07:39;95367.53;;;4.05;94.85
68179;BME280;54998;42.656;23.382;2023-02-28T03:10:29;95377.19;;;4.14;94.82
68179;BME280;54998;42.656;23.382;2023-02-28T03:13:08;95374.22;;;4.22;94.89
68179;BME280;54998;42.656;23.382;2023-02-28T03:18:40;95386.00;;;4.23;94.42
68179;BME280;54998;42.656;23.382;2023-02-28T03:23:59;95386.13;;;4.05;94.16
68179;BME280;54998;42.656;23.382;2023-02-28T03:26:31;95384.19;;;3.80;94.13
68179;BME280;54998;42.656;23.382;2023-02-28T03:31:49;95401.88;;;4.12;94.77
68179;BME280;54998;42.656;23.382;2023-02-28T03:34:22;95390.25;;;4.08;94.62
68179;BME280;54998;42.656;23.382;2023-02-28T03:36:53;95387.59;;;4.09;94.37
68179;BME280;54998;42.656;23.382;2023-02-28T03:39:26;95393.34;;;4.13;94.43
68179;BME280;54998;42.656;23.382;2023-02-28T03:41:59;95394.00;;;4.17;94.25
68179;BME280;54998;42.656;23.382;2023-02-28T03:44:39;95396.41;;;4.18;94.30
68179;BME280;54998;42.656;23.382;2023-02-28T03:47:10;95409.69;;;4.23;94.22
68179;BME280;54998;42.656;23.382;2023-02-28T03:49:45;95407.31;;;4.20;93.39
68179;BME280;54998;42.656;23.382;2023-02-28T03:52:14;95403.31;;;4.16;92.99
68179;BME280;54998;42.656;23.382;2023-02-28T03:54:48;95399.50;;;4.09;93.29
68179;BME280;54998;42.656;23.382;2023-02-28T03:57:45;95403.44;;;3.99;92.88
68179;BME280;54998;42.656;23.382;2023-02-28T04:00:24;95405.84;;;4.02;92.73
68179;BME280;54998;42.656;23.382;2023-02-28T04:02:50;95409.00;;;4.05;93.25
68179;BME280;54998;42.656;23.382;2023-02-28T04:05:19;95411.81;;;4.01;93.28
68179;BME280;54998;42.656;23.382;2023-02-28T04:07:44;95406.31;;;4.08;93.81
68179;BME280;54998;42.656;23.382;2023-02-28T04:10:11;95409.13;;;4.18;94.20
68179;BME280;54998;42.656;23.382;2023-02-28T04:12:37;95403.22;;;4.18;94.39
68179;BME280;54998;42.656;23.382;2023-02-28T04:15:02;95400.41;;;4.22;94.17
68179;BME280;54998;42.656;23.382;2023-02-28T04:17:28;95396.69;;;4.14;94.01
68179;BME280;54998;42.656;23.382;2023-02-28T04:19:53;95402.28;;;4.04;93.44
68179;BME280;54998;42.656;23.382;2023-02-28T04:22:22;95394.75;;;4.03;93.85
68179;BME280;54998;42.656;23.382;2023-02-28T04:24:47;95399.22;;;4.14;94.13
68179;BME280;54998;42.656;23.382;2023-02-28T04:27:13;95393.59;;;4.08;93.77
68179;BME280;54998;42.656;23.382;2023-02-28T04:29:40;95397.59;;;4.13;93.11
68179;BME280;54998;42.656;23.382;2023-02-28T04:32:10;95380.69;;;3.97;93.42
68179;BME280;54998;42.656;23.382;2023-02-28T04:34:36;95407.75;;;4.13;93.30
68179;BME280;54998;42.656;23.382;2023-02-28T04:37:01;95398.94;;;4.04;93.05
68179;BME280;54998;42.656;23.382;2023-02-28T04:39:28;95406.91;;;3.98;93.42
68179;BME280;54998;42.656;23.382;2023-02-28T04:41:53;95407.91;;;3.95;94.00
68179;BME280;54998;42.656;23.382;2023-02-28T04:44:19;95417.41;;;3.91;93.86
68179;BME280;54998;42.656;23.382;2023-02-28T04:46:47;95413.88;;;3.94;93.81
68179;BME280;54998;42.656;23.382;2023-02-28T04:49:13;95423.69;;;4.00;93.72
68179;BME280;54998;42.656;23.382;2023-02-28T04:51:39;95421.75;;;3.89;94.08
68179;BME280;54998;42.656;23.382;2023-02-28T04:54:04;95414.78;;;3.93;93.90
68179;BME280;54998;42.656;23.382;2023-02-28T04:56:30;95425.03;;;3.91;93.75
68179;BME280;54998;42.656;23.382;2023-02-28T04:58:55;95422.44;;;4.07;93.74
68179;BME280;54998;42.656;23.382;2023-02-28T05:01:27;95420.97;;;4.03;93.61
68179;BME280;54998;42.656;23.382;2023-02-28T05:03:55;95428.09;;;4.13;93.11
68179;BME280;54998;42.656;23.382;2023-02-28T05:06:22;95423.91;;;4.11;93.05
68179;BME280;54998;42.656;23.382;2023-02-28T05:08:49;95427.16;;;3.99;93.07
68179;BME280;54998;42.656;23.382;2023-02-28T05:11:23;95419.25;;;4.04;92.89
68179;BME280;54998;42.656;23.382;2023-02-28T05:13:51;95419.81;;;4.09;92.52
68179;BME280;54998;42.656;23.382;2023-02-28T05:16:17;95429.22;;;3.93;92.75
68179;BME280;54998;42.656;23.382;2023-02-28T05:18:44;95441.81;;;3.94;93.23
68179;BME280;54998;42.656;23.382;2023-02-28T05:21:28;95440.13;;;4.09;93.13
68179;BME280;54998;42.656;23.382;2023-02-28T05:23:55;95445.13;;;4.10;92.68
68179;BME280;54998;42.656;23.382;2023-02-28T05:26:21;95440.78;;;4.13;92.22
68179;BME280;54998;42.656;23.382;2023-02-28T05:28:46;95449.47;;;4.08;92.51
68179;BME280;54998;42.656;23.382;2023-02-28T05:31:12;95445.59;;;4.17;92.11
68179;BME280;54998;42.656;23.382;2023-02-28T05:33:38;95451.16;;;4.24;92.10
68179;BME280;54998;42.656;23.382;2023-02-28T05:36:05;95447.63;;;4.26;92.02
68179;BME280;54998;42.656;23.382;2023-02-28T05:38:33;95452.78;;;4.25;91.99
68179;BME280;54998;42.656;23.382;2023-02-28T05:40:58;95456.44;;;4.35;91.94
68179;BME280;54998;42.656;23.382;2023-02-28T05:43:24;95460.72;;;4.35;92.20
68179;BME280;54998;42.656;23.382;2023-02-28T05:45:49;95461.00;;;4.44;92.49
68179;BME280;54998;42.656;23.382;2023-02-28T05:48:15;95464.09;;;4.49;92.41
68179;BME280;54998;42.656;23.382;2023-02-28T05:50:40;95459.56;;;4.55;92.60
68179;BME280;54998;42.656;23.382;2023-02-28T05:53:07;95466.53;;;4.51;91.76
68179;BME280;54998;42.656;23.382;2023-02-28T05:55:33;95473.47;;;4.49;91.14
68179;BME280;54998;42.656;23.382;2023-02-28T05:58:01;95481.78;;;4.51;90.90
68179;BME280;54998;42.656;23.382;2023-02-28T06:00:26;95473.00;;;4.57;90.70
68179;BME280;54998;42.656;23.382;2023-02-28T06:02:53;95463.03;;;4.53;90.52
68179;BME280;54998;42.656;23.382;2023-02-28T06:05:21;95469.66;;;4.56;90.53
68179;BME280;54998;42.656;23.382;2023-02-28T06:07:47;95470.53;;;4.55;91.48
68179;BME280;54998;42.656;23.382;2023-02-28T06:10:13;95466.75;;;4.77;91.42
68179;BME280;54998;42.656;23.382;2023-02-28T06:12:39;95467.75;;;4.74;91.24
68179;BME280;54998;42.656;23.382;2023-02-28T06:15:07;95468.94;;;4.83;91.28
68179;BME280;54998;42.656;23.382;2023-02-28T06:17:32;95470.38;;;4.58;90.27
68179;BME280;54998;42.656;23.382;2023-02-28T06:19:58;95467.50;;;4.64;90.14
68179;BME280;54998;42.656;23.382;2023-02-28T06:22:23;95468.00;;;4.55;90.21
68179;BME280;54998;42.656;23.382;2023-02-28T06:24:48;95464.94;;;4.64;91.06
68179;BME280;54998;42.656;23.382;2023-02-28T06:27:14;95468.75;;;4.71;91.11
68179;BME280;54998;42.656;23.382;2023-02-28T06:29:39;95470.22;;;4.76;90.93
68179;BME280;54998;42.656;23.382;2023-02-28T06:32:05;95472.91;;;4.72;90.33
68179;BME280;54998;42.656;23.382;2023-02-28T06:34:33;95478.84;;;4.73;90.42
68179;BME280;54998;42.656;23.382;2023-02-28T06:37:01;95473.78;;;5.02;89.42
68179;BME280;54998;42.656;23.382;2023-02-28T06:39:27;95471.88;;;5.05;88.85
68179;BME280;54998;42.656;23.382;2023-02-28T06:41:53;95470.97;;;5.21;88.57
68179;BME280;54998;42.656;23.382;2023-02-28T06:44:18;95474.31;;;5.21;87.39
68179;BME280;54998;42.656;23.382;2023-02-28T06:46:45;95475.84;;;5.24;86.89
68179;BME280;54998;42.656;23.382;2023-02-28T06:49:11;95481.66;;;5.26;87.01
68179;BME280;54998;42.656;23.382;2023-02-28T06:51:41;95485.94;;;4.82;86.81
68179;BME280;54998;42.656;23.382;2023-02-28T06:54:08;95488.44;;;4.68;87.91
68179;BME280;54998;42.656;23.382;2023-02-28T06:56:34;95485.13;;;4.82;88.32
68179;BME280;54998;42.656;23.382;2023-02-28T06:59:00;95482.59;;;4.82;88.18
68179;BME280;54998;42.656;23.382;2023-02-28T07:01:25;95492.84;;;4.94;88.13
68179;BME280;54998;42.656;23.382;2023-02-28T07:03:52;95497.56;;;5.01;87.36
68179;BME280;54998;42.656;23.382;2023-02-28T07:06:21;95493.84;;;5.06;86.67
68179;BME280;54998;42.656;23.382;2023-02-28T07:08:51;95498.41;;;5.01;86.91
68179;BME280;54998;42.656;23.382;2023-02-28T07:11:20;95483.66;;;5.06;86.59
68179;BME280;54998;42.656;23.382;2023-02-28T07:13:48;95489.56;;;5.35;86.28
68179;BME280;54998;42.656;23.382;2023-02-28T07:16:13;95489.94;;;5.29;85.45
68179;BME280;54998;42.656;23.382;2023-02-28T07:18:39;95492.00;;;5.51;85.00
68179;BME280;54998;42.656;23.382;2023-02-28T07:21:07;95475.94;;;5.64;84.53
68179;BME280;54998;42.656;23.382;2023-02-28T07:23:33;95485.25;;;5.65;83.76
68179;BME280;54998;42.656;23.382;2023-02-28T07:25:58;95488.88;;;5.75;83.61
68179;BME280;54998;42.656;23.382;2023-02-28T07:28:24;95486.94;;;5.79;83.91
68179;BME280;54998;42.656;23.382;2023-02-28T07:30:49;95489.81;;;5.87;83.02
68179;BME280;54998;42.656;23.382;2023-02-28T07:33:15;95488.81;;;5.89;82.70
68179;BME280;54998;42.656;23.382;2023-02-28T07:35:41;95487.56;;;5.82;83.05
68179;BME280;54998;42.656;23.382;2023-02-28T07:38:06;95479.53;;;5.88;83.17
68179;BME280;54998;42.656;23.382;2023-02-28T07:40:35;95480.38;;;6.29;82.56
68179;BME280;54998;42.656;23.382;2023-02-28T07:43:01;95480.25;;;6.57;81.11
68179;BME280;54998;42.656;23.382;2023-02-28T07:45:28;95481.69;;;6.62;80.93
68179;BME280;54998;42.656;23.382;2023-02-28T07:47:55;95479.25;;;6.60;80.87
68179;BME280;54998;42.656;23.382;2023-02-28T07:50:20;95479.25;;;6.73;80.99
68179;BME280;54998;42.656;23.382;2023-02-28T07:52:46;95480.84;;;6.61;81.04
68179;BME280;54998;42.656;23.382;2023-02-28T07:55:11;95486.91;;;6.98;80.11
68179;BME280;54998;42.656;23.382;2023-02-28T07:57:39;95478.94;;;7.16;79.31
68179;BME280;54998;42.656;23.382;2023-02-28T08:00:06;95477.19;;;7.16;79.46
68179;BME280;54998;42.656;23.382;2023-02-28T08:02:32;95469.25;;;6.95;80.85
68179;BME280;54998;42.656;23.382;2023-02-28T08:05:00;95474.44;;;6.94;81.42
68179;BME280;54998;42.656;23.382;2023-02-28T08:07:26;95475.50;;;7.41;80.70
68179;BME280;54998;42.656;23.382;2023-02-28T08:09:52;95477.69;;;7.71;80.04
68179;BME280;54998;42.656;23.382;2023-02-28T08:12:17;95482.66;;;7.86;79.15
68179;BME280;54998;42.656;23.382;2023-02-28T08:14:43;95476.50;;;7.88;79.73
68179;BME280;54998;42.656;23.382;2023-02-28T08:17:10;95481.19;;;8.18;79.60
68179;BME280;54998;42.656;23.382;2023-02-28T08:19:36;95481.81;;;8.33;79.14
68179;BME280;54998;42.656;23.382;2023-02-28T08:22:02;95476.50;;;8.12;80.27
68179;BME280;54998;42.656;23.382;2023-02-28T08:24:27;95475.19;;;8.66;78.91
68179;BME280;54998;42.656;23.382;2023-02-28T08:26:52;95486.59;;;8.73;77.03
68179;BME280;54998;42.656;23.382;2023-02-28T08:29:18;95488.00;;;8.77;76.98
68179;BME280;54998;42.656;23.382;2023-02-28T08:31:43;95489.03;;;8.63;77.40
68179;BME280;54998;42.656;23.382;2023-02-28T08:34:11;95491.28;;;8.79;76.45
68179;BME280;54998;42.656;23.382;2023-02-28T08:36:37;95487.16;;;9.35;75.23
68179;BME280;54998;42.656;23.382;2023-02-28T08:39:03;95488.72;;;9.58;74.02
68179;BME280;54998;42.656;23.382;2023-02-28T08:41:29;95481.53;;;10.07;72.11
68179;BME280;54998;42.656;23.382;2023-02-28T08:43:54;95477.53;;;10.14;71.13
68179;BME280;54998;42.656;23.382;2023-02-28T08:46:20;95478.75;;;10.84;69.14
68179;BME280;54998;42.656;23.382;2023-02-28T08:48:46;95475.59;;;11.73;65.57
68179;BME280;54998;42.656;23.382;2023-02-28T08:51:14;95489.47;;;11.91;65.02
68179;BME280;54998;42.656;23.382;2023-02-28T08:53:47;95485.44;;;12.18;62.70
68179;BME280;54998;42.656;23.382;2023-02-28T08:56:15;95491.94;;;11.01;66.64
68179;BME280;54998;42.656;23.382;2023-02-28T08:58:42;95487.53;;;10.28;68.95
68179;BME280;54998;42.656;23.382;2023-02-28T09:01:15;95482.44;;;11.13;68.04
68179;BME280;54998;42.656;23.382;2023-02-28T09:03:41;95490.06;;;12.15;63.21
68179;BME280;54998;42.656;23.382;2023-02-28T09:06:11;95483.13;;;10.94;65.93
68179;BME280;54998;42.656;23.382;2023-02-28T09:08:37;95493.22;;;10.32;68.56
68179;BME280;54998;42.656;23.382;2023-02-28T09:11:04;95485.56;;;10.21;69.71
68179;BME280;54998;42.656;23.382;2023-02-28T09:13:29;95484.88;;;10.30;69.03
68179;BME280;54998;42.656;23.382;2023-02-28T09:15:58;95479.75;;;10.30;69.76
68179;BME280;54998;42.656;23.382;2023-02-28T09:18:24;95480.94;;;10.03;70.63
68179;BME280;54998;42.656;23.382;2023-02-28T09:20:50;95480.09;;;9.71;72.29
68179;BME280;54998;42.656;23.382;2023-02-28T09:23:16;95488.94;;;9.78;72.00
68179;BME280;54998;42.656;23.382;2023-02-28T09:25:46;95486.19;;;9.47;72.74
68179;BME280;54998;42.656;23.382;2023-02-28T09:28:12;95483.53;;;9.37;72.83
68179;BME280;54998;42.656;23.382;2023-02-28T09:30:38;95481.31;;;9.44;73.26
68179;BME280;54998;42.656;23.382;2023-02-28T09:33:03;95477.47;;;9.61;72.17
68179;BME280;54998;42.656;23.382;2023-02-28T09:35:29;95486.28;;;9.68;71.21
68179;BME280;54998;42.656;23.382;2023-02-28T09:37:56;95492.00;;;10.15;70.05
68179;BME280;54998;42.656;23.382;2023-02-28T09:40:23;95486.50;;;9.76;70.74
68179;BME280;54998;42.656;23.382;2023-02-28T09:42:51;95489.78;;;9.78;70.89
68179;BME280;54998;42.656;23.382;2023-02-28T09:47:45;95490.59;;;9.56;71.50
68179;BME280;54998;42.656;23.382;2023-02-28T09:52:45;95472.13;;;9.96;68.71
68179;BME280;54998;42.656;23.382;2023-02-28T09:55:32;95464.66;;;9.04;71.69
68179;BME280;54998;42.656;23.382;2023-02-28T09:58:00;95489.22;;;9.63;70.83
68179;BME280;54998;42.656;23.382;2023-02-28T10:00:39;95484.41;;;9.70;70.80
68179;BME280;54998;42.656;23.382;2023-02-28T10:03:31;95476.22;;;10.31;69.66
68179;BME280;54998;42.656;23.382;2023-02-28T10:06:05;95474.16;;;11.09;65.96
68179;BME280;54998;42.656;23.382;2023-02-28T10:11:25;95481.94;;;10.98;64.91
68179;BME280;54998;42.656;23.382;2023-02-28T10:13:59;95468.44;;;10.75;66.14
68179;BME280;54998;42.656;23.382;2023-02-28T10:16:35;95470.50;;;11.12;64.95
68179;BME280;54998;42.656;23.382;2023-02-28T10:19:25;95454.78;;;10.74;66.03
68179;BME280;54998;42.656;23.382;2023-02-28T10:21:55;95464.41;;;10.40;67.08
68179;BME280;54998;42.656;23.382;2023-02-28T10:24:39;95466.94;;;10.72;66.12
68179;BME280;54998;42.656;23.382;2023-02-28T10:27:23;95460.03;;;10.73;65.10
68179;BME280;54998;42.656;23.382;2023-02-28T10:29:54;95455.09;;;10.81;65.29
68179;BME280;54998;42.656;23.382;2023-02-28T10:32:28;95448.56;;;10.98;65.75
68179;BME280;54998;42.656;23.382;2023-02-28T10:35:01;95448.78;;;11.56;63.54
68179;BME280;54998;42.656;23.382;2023-02-28T10:37:31;95439.81;;;12.49;60.42
68179;BME280;54998;42.656;23.382;2023-02-28T10:39:57;95439.38;;;13.48;56.59
68179;BME280;54998;42.656;23.382;2023-02-28T10:42:28;95434.31;;;13.29;56.46
68179;BME280;54998;42.656;23.382;2023-02-28T10:45:13;95443.59;;;12.26;58.03
68179;BME280;54998;42.656;23.382;2023-02-28T10:47:52;95426.94;;;12.40;59.77
68179;BME280;54998;42.656;23.382;2023-02-28T10:50:52;95423.81;;;13.03;57.25
68179;BME280;54998;42.656;23.382;2023-02-28T10:58:42;95428.78;;;12.67;58.13
68179;BME280;54998;42.656;23.382;2023-02-28T11:01:45;95415.25;;;11.17;61.49
68179;BME280;54998;42.656;23.382;2023-02-28T11:07:03;95415.50;;;11.14;62.81
68179;BME280;54998;42.656;23.382;2023-02-28T11:09:38;95394.75;;;10.96;62.92
68179;BME280;54998;42.656;23.382;2023-02-28T11:12:07;95413.00;;;11.34;61.57
68179;BME280;54998;42.656;23.382;2023-02-28T11:14:42;95406.28;;;10.29;65.26
68179;BME280;54998;42.656;23.382;2023-02-28T11:17:24;95402.25;;;10.36;65.65
68179;BME280;54998;42.656;23.382;2023-02-28T11:19:57;95401.94;;;10.30;66.23
68179;BME280;54998;42.656;23.382;2023-02-28T11:22:27;95395.94;;;10.40;65.83
68179;BME280;54998;42.656;23.382;2023-02-28T11:24:56;95397.72;;;11.01;64.01
68179;BME280;54998;42.656;23.382;2023-02-28T11:29:59;95390.41;;;10.87;63.89
68179;BME280;54998;42.656;23.382;2023-02-28T11:32:27;95389.50;;;10.67;64.59
68179;BME280;54998;42.656;23.382;2023-02-28T11:35:43;95389.72;;;10.64;65.03
68179;BME280;54998;42.656;23.382;2023-02-28T11:37:50;95401.25;;;10.48;66.21
68179;BME280;54998;42.656;23.382;2023-02-28T11:40:18;95394.72;;;10.02;67.07
68179;BME280;54998;42.656;23.382;2023-02-28T11:51:23;95396.91;;;10.39;66.33
68179;BME280;54998;42.656;23.382;2023-02-28T11:56:41;95376.88;;;10.01;66.89
68179;BME280;54998;42.656;23.382;2023-02-28T12:02:22;95363.97;;;10.44;65.98
68179;BME280;54998;42.656;23.382;2023-02-28T12:10:42;95374.63;;;10.07;66.90
68179;BME280;54998;42.656;23.382;2023-02-28T12:13:21;95389.25;;;10.28;65.92
68179;BME280;54998;42.656;23.382;2023-02-28T12:26:42;95366.09;;;10.39;65.45
68179;BME280;54998;42.656;23.382;2023-02-28T12:29:28;95372.16;;;10.38;65.96
68179;BME280;54998;42.656;23.382;2023-02-28T12:32:07;95382.69;;;10.56;65.03
68179;BME280;54998;42.656;23.382;2023-02-28T12:34:52;95375.13;;;10.01;65.69
68179;BME280;54998;42.656;23.382;2023-02-28T12:37:34;95375.28;;;10.00;66.42
68179;BME280;54998;42.656;23.382;2023-02-28T12:40:11;95370.94;;;10.00;65.54
68179;BME280;54998;42.656;23.382;2023-02-28T12:42:41;95354.63;;;10.01;66.01
68179;BME280;54998;42.656;23.382;2023-02-28T12:45:18;95363.78;;;10.15;64.64
68179;BME280;54998;42.656;23.382;2023-02-28T12:47:46;95365.19;;;10.08;65.91
68179;BME280;54998;42.656;23.382;2023-02-28T12:50:14;95356.31;;;9.91;65.40
68179;BME280;54998;42.656;23.382;2023-02-28T13:06:40;95365.47;;;10.47;63.38
68179;BME280;54998;42.656;23.382;2023-02-28T13:09:14;95355.69;;;9.99;65.51
68179;BME280;54998;42.656;23.382;2023-02-28T13:11:46;95350.44;;;10.21;65.10
68179;BME280;54998;42.656;23.382;2023-02-28T13:22:05;95358.16;;;10.73;62.86
68179;BME280;54998;42.656;23.382;2023-02-28T13:24:51;95352.13;;;10.53;62.69
68179;BME280;54998;42.656;23.382;2023-02-28T13:27:32;95349.91;;;10.39;63.88
68179;BME280;54998;42.656;23.382;2023-02-28T13:30:49;95348.94;;;10.61;62.99
68179;BME280;54998;42.656;23.382;2023-02-28T13:33:26;95347.47;;;10.37;62.94
68179;BME280;54998;42.656;23.382;2023-02-28T13:38:54;95343.94;;;10.38;63.47
68179;BME280;54998;42.656;23.382;2023-02-28T13:44:05;95340.41;;;10.18;64.50
68179;BME280;54998;42.656;23.382;2023-02-28T13:49:31;95344.97;;;10.15;64.23
68179;BME280;54998;42.656;23.382;2023-02-28T13:57:56;95334.44;;;9.76;65.27
68179;BME280;54998;42.656;23.382;2023-02-28T14:00:59;95344.28;;;9.71;65.29
68179;BME280;54998;42.656;23.382;2023-02-28T14:03:31;95336.56;;;9.71;66.09
68179;BME280;54998;42.656;23.382;2023-02-28T14:08:52;95340.06;;;9.37;67.54
68179;BME280;54998;42.656;23.382;2023-02-28T14:11:45;95347.75;;;9.37;67.59
68179;BME280;54998;42.656;23.382;2023-02-28T14:17:13;95336.44;;;8.96;69.02
68179;BME280;54998;42.656;23.382;2023-02-28T14:19:40;95348.88;;;9.01;68.94
68179;BME280;54998;42.656;23.382;2023-02-28T14:33:03;95352.03;;;8.82;69.94
68179;BME280;54998;42.656;23.382;2023-02-28T14:36:04;95369.59;;;8.64;70.72
68179;BME280;54998;42.656;23.382;2023-02-28T14:38:39;95357.84;;;8.73;70.93
68179;BME280;54998;42.656;23.382;2023-02-28T14:41:19;95356.56;;;8.67;71.01
68179;BME280;54998;42.656;23.382;2023-02-28T14:43:58;95354.34;;;8.51;71.37
68179;BME280;54998;42.656;23.382;2023-02-28T14:46:34;95344.13;;;8.51;71.42
68179;BME280;54998;42.656;23.382;2023-02-28T14:49:01;95349.56;;;8.47;71.72
68179;BME280;54998;42.656;23.382;2023-02-28T14:51:28;95359.81;;;8.47;71.73
68179;BME280;54998;42.656;23.382;2023-02-28T14:53:59;95357.00;;;8.50;71.16
68179;BME280;54998;42.656;23.382;2023-02-28T14:56:36;95352.03;;;8.59;71.00
68179;BME280;54998;42.656;23.382;2023-02-28T14:59:03;95359.47;;;8.62;71.03
68179;BME280;54998;42.656;23.382;2023-02-28T15:01:29;95355.22;;;8.39;72.19
68179;BME280;54998;42.656;23.382;2023-02-28T15:04:04;95358.41;;;8.54;71.39
68179;BME280;54998;42.656;23.382;2023-02-28T15:06:31;95356.31;;;8.48;71.58
68179;BME280;54998;42.656;23.382;2023-02-28T15:09:16;95349.47;;;8.48;71.37
68179;BME280;54998;42.656;23.382;2023-02-28T15:11:46;95350.72;;;8.42;71.23
68179;BME280;54998;42.656;23.382;2023-02-28T15:14:19;95347.22;;;8.43;70.89
68179;BME280;54998;42.656;23.382;2023-02-28T15:16:48;95350.28;;;8.49;71.20
68179;BME280;54998;42.656;23.382;2023-02-28T15:19:29;95355.03;;;8.42;70.87
68179;BME280;54998;42.656;23.382;2023-02-28T15:22:07;95353.28;;;8.42;70.71
68179;BME280;54998;42.656;23.382;2023-02-28T15:24:37;95351.06;;;8.38;71.21
68179;BME280;54998;42.656;23.382;2023-02-28T15:27:07;95357.66;;;8.29;71.70
68179;BME280;54998;42.656;23.382;2023-02-28T15:29:44;95365.50;;;8.03;72.89